Time;durP1;ratioP1;P1;durP2;ratioP2;P2;SDS_P1;SDS_P2;PMS_P1;PMS_P2;Temp;Humidity;BMP_temperature;BMP_pressure;BME280_temperature;BME280_humidity;BME280_pressure;Samples;Min_cycle;Max_cycle;Signal;HPM_P1;HPM_P2
2022/10/09 00:00:00;;;;;;;16.05;6.65;;;;;;;;;;5015159;28;20080;-77
2022/10/09 00:02:26;;;;;;;11.73;6.00;;;;;;;;;;5015017;28;20111;-77
2022/10/09 00:04:52;;;;;;;17.13;6.20;;;;;;;;;;5004491;28;20053;-77
2022/10/09 00:07:18;;;;;;;15.68;6.07;;;;;;;;;;4995048;28;20353;-77
2022/10/09 00:09:45;;;;;;;11.52;6.07;;;;;;;;;;4995237;28;20041;-77
2022/10/09 00:12:11;;;;;;;20.20;7.05;;;;;;;;;;4995304;28;20037;-77
2022/10/09 00:14:37;;;;;;;13.43;6.35;;;;;;;;;;4995163;28;20035;-77
2022/10/09 00:17:03;;;;;;;16.20;6.55;;;;;;;;;;4995070;28;20102;-77
2022/10/09 00:19:29;;;;;;;11.88;6.78;;;;;;;;;;4994982;28;20338;-77
2022/10/09 00:21:55;;;;;;;15.98;6.30;;;;;;;;;;4994917;28;20094;-77
2022/10/09 00:24:22;;;;;;;20.13;7.03;;;;;;;;;;4995018;28;20161;-77
2022/10/09 00:26:48;;;;;;;16.38;7.18;;;;;;;;;;4994819;28;20034;-77
2022/10/09 00:29:14;;;;;;;17.73;6.55;;;;;;;;;;4994247;28;20136;-77
2022/10/09 00:31:40;;;;;;;21.80;7.18;;;;;;;;;;4994785;28;20014;-77
2022/10/09 00:34:06;;;;;;;16.52;6.50;;;;;;;;;;5008185;28;20068;-77
2022/10/09 00:36:32;;;;;;;11.15;6.35;;;;;;;;;;5014318;28;20061;-76
2022/10/09 00:38:58;;;;;;;14.75;6.88;;;;;;;;;;5014256;28;20155;-77
2022/10/09 00:41:25;;;;;;;13.75;6.93;;;;;;;;;;5014173;28;20033;-77
2022/10/09 00:43:53;;;;;;;14.02;6.07;;;;;;;;;;5014200;28;20080;-77
2022/10/09 00:46:38;;;;;;;15.07;6.32;;;;;;;;;;5014023;28;20352;-77
2022/10/09 00:49:09;;;;;;;13.57;6.57;;;;;;;;;;5013727;28;20065;-77
2022/10/09 00:51:36;;;;;;;21.30;7.30;;;;;;;;;;5013801;28;20570;-77
2022/10/09 00:54:04;;;;;;;13.80;6.50;;;;;;;;;;5013984;28;20022;-77
2022/10/09 00:56:30;;;;;;;16.02;6.63;;;;;;;;;;5013863;28;20376;-77
2022/10/09 00:58:57;;;;;;;15.60;6.80;;;;;;;;;;5013724;28;20030;-77
2022/10/09 01:01:23;;;;;;;16.90;7.07;;;;;;;;;;5013810;28;20064;-77
2022/10/09 01:03:49;;;;;;;11.60;6.75;;;;;;;;;;5011963;28;20392;-77
2022/10/09 01:06:51;;;;;;;17.17;6.90;;;;;;;;;;4994174;28;20096;-77
2022/10/09 01:09:23;;;;;;;18.63;7.32;;;;;;;;;;5014559;28;20048;-77
2022/10/09 01:12:08;;;;;;;17.60;7.50;;;;;;;;;;4995891;28;20436;-77
2022/10/09 01:14:38;;;;;;;16.15;7.43;;;;;;;;;;4993925;28;20034;-77
2022/10/09 01:17:23;;;;;;;19.50;7.10;;;;;;;;;;4994167;28;20318;-77
2022/10/09 01:19:52;;;;;;;16.85;8.07;;;;;;;;;;4993531;28;20381;-77
2022/10/09 01:22:18;;;;;;;20.73;7.75;;;;;;;;;;4999065;28;20314;-77
2022/10/09 01:24:47;;;;;;;16.33;7.28;;;;;;;;;;5013300;28;20044;-77
2022/10/09 01:27:21;;;;;;;19.42;7.45;;;;;;;;;;5013776;28;20026;-77
2022/10/09 01:29:49;;;;;;;15.10;7.50;;;;;;;;;;5013019;28;20050;-77
2022/10/09 01:32:20;;;;;;;18.02;7.85;;;;;;;;;;5013117;28;20127;-77
2022/10/09 01:34:47;;;;;;;22.10;8.88;;;;;;;;;;5008511;28;20386;-77
2022/10/09 01:37:14;;;;;;;16.38;7.75;;;;;;;;;;4993519;28;20026;-77
2022/10/09 01:39:41;;;;;;;20.85;7.68;;;;;;;;;;4993449;28;20092;-77
2022/10/09 01:42:07;;;;;;;17.45;8.23;;;;;;;;;;4993377;28;20319;-77
2022/10/09 01:44:34;;;;;;;18.83;8.18;;;;;;;;;;4993233;28;20093;-77
2022/10/09 01:47:01;;;;;;;17.13;8.27;;;;;;;;;;4993165;28;20801;-77
2022/10/09 01:49:27;;;;;;;20.92;9.07;;;;;;;;;;4992733;28;20141;-77
2022/10/09 01:52:13;;;;;;;20.05;8.75;;;;;;;;;;4993025;28;20069;-77
2022/10/09 01:55:02;;;;;;;18.63;8.27;;;;;;;;;;4993294;28;20081;-77
2022/10/09 01:57:34;;;;;;;17.23;8.32;;;;;;;;;;4997550;28;20027;-77
2022/10/09 02:00:01;;;;;;;17.60;8.07;;;;;;;;;;4992221;28;20148;-77
2022/10/09 02:02:27;;;;;;;18.55;8.35;;;;;;;;;;4991789;28;20033;-77
2022/10/09 02:04:54;;;;;;;16.65;8.32;;;;;;;;;;4991572;28;20334;-77
2022/10/09 02:07:20;;;;;;;18.55;8.43;;;;;;;;;;4991631;28;20031;-77
2022/10/09 02:09:47;;;;;;;19.20;8.15;;;;;;;;;;4991764;28;20041;-77
2022/10/09 02:12:13;;;;;;;20.13;8.48;;;;;;;;;;4991694;28;20026;-77
2022/10/09 02:14:39;;;;;;;25.85;9.32;;;;;;;;;;4991545;28;20042;-77
2022/10/09 02:17:08;;;;;;;24.98;9.80;;;;;;;;;;4991497;28;20458;-77
2022/10/09 02:19:38;;;;;;;20.33;10.48;;;;;;;;;;4991510;28;20072;-77
2022/10/09 02:22:06;;;;;;;27.08;10.27;;;;;;;;;;4991327;28;20144;-77
2022/10/09 02:24:33;;;;;;;24.50;9.95;;;;;;;;;;4991192;28;20088;-77
2022/10/09 02:26:59;;;;;;;19.98;10.13;;;;;;;;;;4991513;28;20050;-77
2022/10/09 02:29:25;;;;;;;25.13;9.52;;;;;;;;;;4991901;28;20051;-77
2022/10/09 02:31:51;;;;;;;25.55;10.38;;;;;;;;;;4992679;28;20042;-77
2022/10/09 02:34:18;;;;;;;21.55;9.80;;;;;;;;;;5006901;28;20030;-77
2022/10/09 02:36:44;;;;;;;25.27;10.25;;;;;;;;;;5012380;28;20383;-77
2022/10/09 02:39:10;;;;;;;25.10;9.68;;;;;;;;;;5012333;28;20070;-77
2022/10/09 02:41:36;;;;;;;18.15;9.15;;;;;;;;;;5012259;28;20026;-77
2022/10/09 02:44:03;;;;;;;20.38;8.63;;;;;;;;;;5010858;28;20124;-77
2022/10/09 02:46:29;;;;;;;16.63;8.45;;;;;;;;;;5012074;28;20041;-77
2022/10/09 02:48:55;;;;;;;23.48;9.35;;;;;;;;;;5010890;28;20521;-77
2022/10/09 02:51:22;;;;;;;15.38;7.90;;;;;;;;;;5012228;28;20030;-77
2022/10/09 02:53:48;;;;;;;18.42;8.32;;;;;;;;;;5012205;28;20095;-77
2022/10/09 02:56:14;;;;;;;21.73;8.68;;;;;;;;;;5012094;28;20022;-77
2022/10/09 02:58:40;;;;;;;20.60;7.90;;;;;;;;;;5012297;28;20039;-77
2022/10/09 03:01:07;;;;;;;21.15;8.98;;;;;;;;;;5011854;28;20075;-77
2022/10/09 03:03:33;;;;;;;21.10;8.38;;;;;;;;;;5012101;28;20044;-77
2022/10/09 03:06:01;;;;;;;17.85;8.82;;;;;;;;;;4992526;28;20030;-77
2022/10/09 03:08:27;;;;;;;21.85;9.35;;;;;;;;;;4991013;28;20118;-77
2022/10/09 03:10:53;;;;;;;26.73;9.85;;;;;;;;;;4991761;28;20061;-77
2022/10/09 03:13:19;;;;;;;25.25;10.38;;;;;;;;;;5014483;28;20034;-77
2022/10/09 03:15:45;;;;;;;25.50;10.23;;;;;;;;;;5015475;28;20030;-77
2022/10/09 03:18:11;;;;;;;22.02;10.38;;;;;;;;;;5015750;28;20045;-77
2022/10/09 03:20:37;;;;;;;22.13;9.95;;;;;;;;;;5015642;28;20030;-77
2022/10/09 03:23:03;;;;;;;22.80;10.32;;;;;;;;;;5015369;28;20033;-77
2022/10/09 03:25:29;;;;;;;26.45;9.95;;;;;;;;;;5014544;28;20101;-77
2022/10/09 03:27:55;;;;;;;22.55;10.15;;;;;;;;;;5015553;28;20038;-77
2022/10/09 03:30:21;;;;;;;25.30;9.77;;;;;;;;;;5015042;28;20077;-77
2022/10/09 03:32:48;;;;;;;27.15;10.05;;;;;;;;;;5015076;28;20029;-77
2022/10/09 03:35:14;;;;;;;22.10;10.05;;;;;;;;;;5015432;28;20492;-77
2022/10/09 03:37:40;;;;;;;20.77;9.43;;;;;;;;;;5015438;28;20030;-77
2022/10/09 03:40:06;;;;;;;19.48;8.93;;;;;;;;;;5015137;28;20531;-77
2022/10/09 03:42:32;;;;;;;22.23;8.57;;;;;;;;;;5014996;28;20049;-77
2022/10/09 03:45:02;;;;;;;20.38;8.98;;;;;;;;;;5013614;28;20026;-77
2022/10/09 03:47:28;;;;;;;18.85;8.25;;;;;;;;;;5015044;28;20045;-77
2022/10/09 03:49:54;;;;;;;24.20;8.25;;;;;;;;;;5014851;28;20133;-77
2022/10/09 03:52:20;;;;;;;17.67;8.57;;;;;;;;;;5013525;28;20393;-77
2022/10/09 03:54:46;;;;;;;24.52;9.70;;;;;;;;;;5015003;28;20364;-77
2022/10/09 03:57:12;;;;;;;17.33;8.07;;;;;;;;;;5014856;28;20036;-77
2022/10/09 03:59:38;;;;;;;20.85;8.68;;;;;;;;;;5015246;28;20041;-77
2022/10/09 04:02:04;;;;;;;20.17;8.82;;;;;;;;;;5014930;28;20041;-77
2022/10/09 04:04:30;;;;;;;20.58;8.25;;;;;;;;;;5007490;28;20026;-77
2022/10/09 04:06:56;;;;;;;20.50;8.55;;;;;;;;;;4994995;28;20042;-77
2022/10/09 04:09:22;;;;;;;21.08;8.13;;;;;;;;;;4995010;28;20034;-77
2022/10/09 04:11:48;;;;;;;16.73;8.57;;;;;;;;;;4995020;28;20473;-77
2022/10/09 04:14:14;;;;;;;17.73;8.15;;;;;;;;;;4993972;28;20027;-77
2022/10/09 04:16:40;;;;;;;13.35;7.60;;;;;;;;;;4994830;28;20511;-77
2022/10/09 04:19:06;;;;;;;14.00;7.57;;;;;;;;;;4994907;28;20409;-77
2022/10/09 04:21:32;;;;;;;22.30;7.50;;;;;;;;;;4994395;28;20040;-77
2022/10/09 04:23:58;;;;;;;17.77;7.65;;;;;;;;;;4994805;28;20046;-77
2022/10/09 04:26:25;;;;;;;14.88;7.63;;;;;;;;;;4995067;28;20110;-77
2022/10/09 04:28:51;;;;;;;13.30;7.05;;;;;;;;;;4994578;28;20157;-77
2022/10/09 04:31:17;;;;;;;18.00;7.43;;;;;;;;;;4994687;28;20026;-77
2022/10/09 04:33:43;;;;;;;15.60;7.15;;;;;;;;;;5006187;28;20021;-77
2022/10/09 04:36:09;;;;;;;16.85;7.32;;;;;;;;;;4999015;28;20054;-77
2022/10/09 04:38:35;;;;;;;18.23;7.38;;;;;;;;;;4994538;28;20414;-77
2022/10/09 04:41:03;;;;;;;16.50;7.07;;;;;;;;;;4994434;28;20022;-77
2022/10/09 04:43:29;;;;;;;17.40;7.47;;;;;;;;;;4994524;28;20049;-77
2022/10/09 04:45:56;;;;;;;12.75;6.60;;;;;;;;;;4994455;28;20081;-77
2022/10/09 04:48:22;;;;;;;15.07;7.13;;;;;;;;;;4994263;28;20038;-77
2022/10/09 04:50:48;;;;;;;16.40;6.82;;;;;;;;;;5000906;28;20026;-77
2022/10/09 04:53:14;;;;;;;13.50;5.88;;;;;;;;;;5025573;28;20084;-77
2022/10/09 04:55:41;;;;;;;14.93;6.75;;;;;;;;;;5003107;28;20026;-77
2022/10/09 04:58:07;;;;;;;14.25;6.32;;;;;;;;;;5000952;28;20030;-77
2022/10/09 05:00:34;;;;;;;18.52;7.22;;;;;;;;;;4994272;28;20480;-77
2022/10/09 05:03:00;;;;;;;13.48;6.13;;;;;;;;;;5011658;28;20053;-77
2022/10/09 05:05:26;;;;;;;12.10;5.72;;;;;;;;;;5003337;28;20030;-77
2022/10/09 05:07:52;;;;;;;16.13;6.25;;;;;;;;;;5013385;28;20061;-77
2022/10/09 05:10:18;;;;;;;13.52;6.05;;;;;;;;;;5013067;28;20026;-77
2022/10/09 05:12:44;;;;;;;9.40;5.63;;;;;;;;;;5004297;28;20109;-77
2022/10/09 05:15:10;;;;;;;15.90;6.32;;;;;;;;;;4993884;28;20022;-77
2022/10/09 05:17:36;;;;;;;14.90;5.70;;;;;;;;;;4996301;28;20386;-77
2022/10/09 05:20:02;;;;;;;11.27;5.80;;;;;;;;;;5013202;28;20068;-77
2022/10/09 05:22:28;;;;;;;14.20;5.90;;;;;;;;;;5005974;28;20046;-77
2022/10/09 05:24:54;;;;;;;9.00;5.82;;;;;;;;;;5006783;28;20029;-77
2022/10/09 05:27:20;;;;;;;14.38;6.38;;;;;;;;;;5012009;28;20072;-77
2022/10/09 05:29:46;;;;;;;10.18;4.85;;;;;;;;;;5012672;28;20046;-77
2022/10/09 05:32:13;;;;;;;12.05;5.22;;;;;;;;;;5012761;28;20365;-77
2022/10/09 05:34:39;;;;;;;10.65;5.20;;;;;;;;;;4992754;28;20060;-77
2022/10/09 05:37:05;;;;;;;11.45;5.78;;;;;;;;;;4993217;28;20432;-77
2022/10/09 05:39:34;;;;;;;10.18;4.80;;;;;;;;;;4992020;28;20026;-77
2022/10/09 05:42:00;;;;;;;7.20;4.43;;;;;;;;;;5008248;28;20084;-77
2022/10/09 05:44:26;;;;;;;8.48;4.57;;;;;;;;;;5008529;28;20038;-77
2022/10/09 05:46:52;;;;;;;7.22;4.53;;;;;;;;;;5011003;28;20034;-77
2022/10/09 05:49:18;;;;;;;17.48;5.43;;;;;;;;;;5012410;28;20030;-77
2022/10/09 05:51:45;;;;;;;11.00;5.30;;;;;;;;;;5012500;28;20030;-77
2022/10/09 05:54:14;;;;;;;10.90;4.80;;;;;;;;;;5011165;28;20026;-77
2022/10/09 05:56:41;;;;;;;12.75;5.22;;;;;;;;;;5012104;28;20030;-77
2022/10/09 05:59:12;;;;;;;10.50;5.00;;;;;;;;;;4992653;28;20108;-77
2022/10/09 06:01:40;;;;;;;11.73;5.65;;;;;;;;;;5004037;28;20029;-77
2022/10/09 06:04:08;;;;;;;11.73;5.32;;;;;;;;;;5012152;28;20071;-77
2022/10/09 06:06:36;;;;;;;11.80;5.40;;;;;;;;;;5012627;28;20022;-77
2022/10/09 06:09:03;;;;;;;11.05;4.93;;;;;;;;;;5005729;28;20077;-77
2022/10/09 06:11:30;;;;;;;12.30;5.40;;;;;;;;;;4992579;28;20028;-77
2022/10/09 06:13:57;;;;;;;13.38;5.43;;;;;;;;;;4992587;28;20503;-77
2022/10/09 06:16:24;;;;;;;11.45;5.05;;;;;;;;;;4991030;28;20053;-77
2022/10/09 06:18:52;;;;;;;8.05;4.82;;;;;;;;;;4992766;28;20412;-77
2022/10/09 06:21:18;;;;;;;16.08;5.38;;;;;;;;;;4992844;28;20065;-77
2022/10/09 06:23:44;;;;;;;13.25;5.25;;;;;;;;;;4992542;28;20081;-77
2022/10/09 06:26:11;;;;;;;11.57;5.03;;;;;;;;;;5008730;28;20064;-77
2022/10/09 06:28:37;;;;;;;15.45;5.10;;;;;;;;;;5026961;28;20396;-77
2022/10/09 06:31:08;;;;;;;8.63;4.97;;;;;;;;;;5011932;28;20025;-77
2022/10/09 06:33:35;;;;;;;11.30;5.00;;;;;;;;;;5006773;28;20022;-77
2022/10/09 06:36:02;;;;;;;17.30;5.40;;;;;;;;;;4996232;28;20022;-77
2022/10/09 06:38:28;;;;;;;11.07;5.95;;;;;;;;;;5006417;28;20172;-77
2022/10/09 06:40:55;;;;;;;15.27;6.30;;;;;;;;;;5004315;28;20076;-77
2022/10/09 06:43:21;;;;;;;13.93;7.28;;;;;;;;;;5000709;28;20122;-77
2022/10/09 06:45:47;;;;;;;18.20;7.43;;;;;;;;;;5005551;28;20026;-77
2022/10/09 06:48:13;;;;;;;17.13;8.13;;;;;;;;;;5008061;28;20084;-77
2022/10/09 06:50:39;;;;;;;16.95;6.25;;;;;;;;;;5001277;28;20465;-77
2022/10/09 06:53:05;;;;;;;16.27;6.70;;;;;;;;;;5007397;28;20034;-77
2022/10/09 06:55:32;;;;;;;21.77;6.38;;;;;;;;;;5012685;28;20036;-77
2022/10/09 06:57:58;;;;;;;12.27;6.18;;;;;;;;;;5003325;28;20037;-77
2022/10/09 07:00:24;;;;;;;23.48;6.80;;;;;;;;;;5004802;28;20034;-77
2022/10/09 07:02:50;;;;;;;13.90;7.13;;;;;;;;;;5006071;28;20902;-77
2022/10/09 07:05:16;;;;;;;15.90;6.82;;;;;;;;;;4995797;28;20022;-77
2022/10/09 07:07:42;;;;;;;19.38;6.65;;;;;;;;;;5010282;28;20034;-77
2022/10/09 07:10:09;;;;;;;12.45;6.82;;;;;;;;;;5011622;28;20033;-77
2022/10/09 07:12:38;;;;;;;25.50;6.88;;;;;;;;;;5011728;28;20022;-77
2022/10/09 07:15:05;;;;;;;18.40;6.85;;;;;;;;;;5003430;28;20076;-77
2022/10/09 07:17:32;;;;;;;12.90;6.82;;;;;;;;;;5011830;28;20399;-77
2022/10/09 07:19:58;;;;;;;22.08;8.10;;;;;;;;;;5002780;28;20473;-77
2022/10/09 07:22:24;;;;;;;14.70;7.97;;;;;;;;;;5003602;28;20546;-77
2022/10/09 07:24:50;;;;;;;14.15;7.22;;;;;;;;;;5007063;28;20030;-77
2022/10/09 07:27:17;;;;;;;17.73;7.25;;;;;;;;;;5010610;28;20057;-77
2022/10/09 07:29:43;;;;;;;23.48;7.80;;;;;;;;;;5003576;28;20046;-77
2022/10/09 07:32:09;;;;;;;12.80;6.65;;;;;;;;;;5004833;28;20104;-77
2022/10/09 07:34:35;;;;;;;17.67;6.95;;;;;;;;;;5005299;28;20030;-77
2022/10/09 07:37:01;;;;;;;13.52;6.72;;;;;;;;;;5007458;28;20465;-77
2022/10/09 07:39:27;;;;;;;12.30;6.18;;;;;;;;;;5003788;28;20037;-77
2022/10/09 07:41:53;;;;;;;16.77;6.68;;;;;;;;;;5005298;28;20027;-77
2022/10/09 07:44:19;;;;;;;14.10;6.97;;;;;;;;;;5001613;28;20388;-77
2022/10/09 07:46:45;;;;;;;16.98;6.50;;;;;;;;;;4998774;28;20113;-78
2022/10/09 07:49:11;;;;;;;14.40;6.13;;;;;;;;;;5006011;28;20026;-77
2022/10/09 07:51:37;;;;;;;18.58;6.95;;;;;;;;;;5001431;28;20533;-78
2022/10/09 07:54:04;;;;;;;18.88;6.35;;;;;;;;;;5007353;28;20461;-77
2022/10/09 07:56:31;;;;;;;16.02;6.50;;;;;;;;;;4999975;28;20054;-77
2022/10/09 07:58:58;;;;;;;23.30;7.32;;;;;;;;;;5008872;28;20034;-78
2022/10/09 08:01:26;;;;;;;22.30;6.13;;;;;;;;;;5002919;28;20135;-77
2022/10/09 08:03:53;;;;;;;15.60;6.57;;;;;;;;;;5010662;28;20036;-77
2022/10/09 08:06:19;;;;;;;15.95;6.05;;;;;;;;;;5006192;28;20492;-77
2022/10/09 08:08:49;;;;;;;17.63;6.85;;;;;;;;;;5005401;28;20022;-78
2022/10/09 08:11:16;;;;;;;19.90;6.55;;;;;;;;;;5004848;28;20453;-77
2022/10/09 08:13:42;;;;;;;15.88;6.32;;;;;;;;;;5005360;28;20365;-77
2022/10/09 08:16:08;;;;;;;19.00;6.10;;;;;;;;;;5008056;28;20022;-77
2022/10/09 08:18:35;;;;;;;15.75;5.82;;;;;;;;;;5012656;28;20047;-78
2022/10/09 08:21:03;;;;;;;18.35;5.90;;;;;;;;;;5007621;28;20423;-78
2022/10/09 08:23:29;;;;;;;22.08;6.28;;;;;;;;;;4999334;28;20536;-78
2022/10/09 08:25:55;;;;;;;23.00;6.05;;;;;;;;;;5001987;28;20019;-78
2022/10/09 08:28:22;;;;;;;19.95;6.38;;;;;;;;;;5013375;28;20045;-78
2022/10/09 08:30:48;;;;;;;15.30;5.72;;;;;;;;;;5013744;28;20030;-78
2022/10/09 08:33:14;;;;;;;19.42;6.05;;;;;;;;;;5005373;28;20113;-78
2022/10/09 08:35:40;;;;;;;19.88;7.03;;;;;;;;;;5006329;28;20026;-78
2022/10/09 08:38:06;;;;;;;18.83;5.93;;;;;;;;;;5011817;28;20165;-78
2022/10/09 08:40:50;;;;;;;22.73;5.95;;;;;;;;;;5009607;28;20034;-78
2022/10/09 08:43:18;;;;;;;17.15;5.90;;;;;;;;;;4994071;28;20054;-78
2022/10/09 08:45:45;;;;;;;17.30;4.75;;;;;;;;;;5004893;28;20480;-78
2022/10/09 08:48:13;;;;;;;21.23;7.68;;;;;;;;;;5013708;28;20065;-80
2022/10/09 08:50:41;;;;;;;16.27;5.70;;;;;;;;;;5009941;28;20451;-81
2022/10/09 08:53:07;;;;;;;16.15;5.25;;;;;;;;;;5017948;28;20495;-80
2022/10/09 08:56:06;;;;;;;17.67;5.13;;;;;;;;;;5013580;28;20376;-80
2022/10/09 08:58:33;;;;;;;11.85;5.00;;;;;;;;;;5012658;28;20049;-81
2022/10/09 09:01:11;;;;;;;11.13;4.15;;;;;;;;;;5013668;28;20097;-81
2022/10/09 09:03:59;;;;;;;14.63;4.68;;;;;;;;;;5012952;28;20325;-80
2022/10/09 09:06:28;;;;;;;19.10;4.45;;;;;;;;;;4993987;28;20022;-80
2022/10/09 09:08:59;;;;;;;13.57;4.53;;;;;;;;;;4991527;28;20370;-80
2022/10/09 09:11:44;;;;;;;18.58;5.20;;;;;;;;;;4995092;28;20057;-81
2022/10/09 09:14:10;;;;;;;18.67;5.10;;;;;;;;;;5013722;28;20026;-81
2022/10/09 09:16:39;;;;;;;19.23;4.88;;;;;;;;;;5013477;28;20026;-81
2022/10/09 09:19:12;;;;;;;17.95;5.00;;;;;;;;;;5015743;28;20027;-79
2022/10/09 09:21:47;;;;;;;17.00;4.93;;;;;;;;;;5029661;28;20071;-80
2022/10/09 09:24:17;;;;;;;16.45;4.85;;;;;;;;;;4993029;28;20105;-80
2022/10/09 09:26:46;;;;;;;18.92;5.10;;;;;;;;;;4992209;28;20030;-80
2022/10/09 09:29:14;;;;;;;14.13;4.45;;;;;;;;;;4993657;28;20109;-80
2022/10/09 09:31:41;;;;;;;20.25;5.82;;;;;;;;;;4992366;28;20023;-80
2022/10/09 09:34:24;;;;;;;20.33;5.35;;;;;;;;;;5009617;28;20054;-80
2022/10/09 09:36:50;;;;;;;16.23;4.35;;;;;;;;;;5013265;28;20025;-80
2022/10/09 09:39:16;;;;;;;9.15;3.55;;;;;;;;;;5013043;28;20025;-80
2022/10/09 09:41:43;;;;;;;15.45;3.85;;;;;;;;;;5012074;28;20049;-80
2022/10/09 09:44:10;;;;;;;15.15;3.50;;;;;;;;;;5012967;28;20045;-80
2022/10/09 09:46:37;;;;;;;12.85;3.45;;;;;;;;;;5012984;28;20026;-80
2022/10/09 09:49:03;;;;;;;13.10;3.60;;;;;;;;;;5012794;28;20038;-80
2022/10/09 09:51:30;;;;;;;17.58;3.80;;;;;;;;;;5012888;28;20026;-80
2022/10/09 09:54:02;;;;;;;9.23;3.55;;;;;;;;;;5012936;28;20014;-79
2022/10/09 09:56:37;;;;;;;13.13;3.58;;;;;;;;;;5012965;28;20089;-79
2022/10/09 09:59:03;;;;;;;12.40;3.65;;;;;;;;;;5012824;28;20033;-79
2022/10/09 10:01:30;;;;;;;10.75;3.42;;;;;;;;;;5012745;28;20026;-79
2022/10/09 10:03:57;;;;;;;9.73;3.80;;;;;;;;;;5008766;28;20126;-79
2022/10/09 10:06:27;;;;;;;13.38;3.63;;;;;;;;;;4993195;28;20465;-79
2022/10/09 10:09:01;;;;;;;7.72;3.40;;;;;;;;;;4992969;28;20030;-80
2022/10/09 10:11:27;;;;;;;15.23;3.80;;;;;;;;;;4992902;28;20049;-80
2022/10/09 10:13:53;;;;;;;10.55;3.45;;;;;;;;;;4993040;28;20422;-80
2022/10/09 10:16:24;;;;;;;13.88;3.17;;;;;;;;;;4993048;28;20424;-79
2022/10/09 10:18:50;;;;;;;12.32;3.67;;;;;;;;;;4992881;28;20018;-79
2022/10/09 10:21:17;;;;;;;9.98;3.15;;;;;;;;;;4992560;28;20113;-79
2022/10/09 10:23:45;;;;;;;11.25;3.70;;;;;;;;;;4992815;28;20026;-80
2022/10/09 10:26:26;;;;;;;13.75;4.32;;;;;;;;;;4992874;28;20023;-80
2022/10/09 10:28:55;;;;;;;13.60;3.58;;;;;;;;;;4992579;28;20112;-80
2022/10/09 10:31:42;;;;;;;15.45;3.58;;;;;;;;;;4992876;28;20046;-80
2022/10/09 10:34:15;;;;;;;13.43;3.78;;;;;;;;;;5025339;28;20384;-79
2022/10/09 10:36:41;;;;;;;10.40;3.25;;;;;;;;;;5012258;28;20026;-79
2022/10/09 10:39:21;;;;;;;13.45;3.95;;;;;;;;;;4994003;28;20101;-79
2022/10/09 10:41:49;;;;;;;14.23;4.05;;;;;;;;;;4992426;28;20473;-80
2022/10/09 10:44:15;;;;;;;11.60;4.38;;;;;;;;;;4992725;28;20081;-80
2022/10/09 10:46:47;;;;;;;9.63;4.15;;;;;;;;;;4992300;28;20045;-79
2022/10/09 10:49:17;;;;;;;9.95;4.03;;;;;;;;;;4992376;28;20026;-79
2022/10/09 10:51:52;;;;;;;15.60;4.10;;;;;;;;;;4992553;28;20161;-80
2022/10/09 10:54:35;;;;;;;12.10;4.43;;;;;;;;;;4992608;28;20101;-80
2022/10/09 10:57:20;;;;;;;13.23;3.92;;;;;;;;;;4992487;28;20105;-80
2022/10/09 10:59:56;;;;;;;8.80;3.17;;;;;;;;;;4992307;28;20041;-80
2022/10/09 11:02:34;;;;;;;12.60;4.10;;;;;;;;;;4992593;28;20053;-79
2022/10/09 11:05:00;;;;;;;12.18;3.38;;;;;;;;;;5003880;28;20362;-80
2022/10/09 11:07:38;;;;;;;10.15;3.55;;;;;;;;;;5012151;28;20041;-79
2022/10/09 11:10:23;;;;;;;10.68;3.88;;;;;;;;;;5011820;28;20096;-79
2022/10/09 11:13:07;;;;;;;8.27;3.20;;;;;;;;;;5011999;28;20025;-80
2022/10/09 11:15:44;;;;;;;8.88;3.88;;;;;;;;;;5012175;28;20809;-80
2022/10/09 11:18:16;;;;;;;11.65;3.55;;;;;;;;;;5011739;28;20018;-79
2022/10/09 11:20:42;;;;;;;13.18;3.88;;;;;;;;;;5011945;28;20077;-80
2022/10/09 11:23:17;;;;;;;12.25;3.42;;;;;;;;;;4997176;28;20031;-80
2022/10/09 11:26:19;;;;;;;9.38;2.47;;;;;;;;;;4992506;28;20495;-80
2022/10/09 11:28:58;;;;;;;12.75;4.20;;;;;;;;;;4989521;28;20062;-80
2022/10/09 11:31:30;;;;;;;11.75;3.15;;;;;;;;;;4991888;28;20047;-80
2022/10/09 11:34:03;;;;;;;12.65;2.53;;;;;;;;;;5010895;28;20536;-80
2022/10/09 11:36:42;;;;;;;8.13;2.38;;;;;;;;;;5015381;28;20072;-79
2022/10/09 11:39:11;;;;;;;8.45;2.72;;;;;;;;;;5015435;28;20033;-79
2022/10/09 11:41:37;;;;;;;5.45;2.40;;;;;;;;;;5015266;28;20314;-79
2022/10/09 11:44:15;;;;;;;4.93;2.03;;;;;;;;;;5015223;28;20376;-79
2022/10/09 11:46:48;;;;;;;7.63;2.72;;;;;;;;;;5015297;28;20109;-79
2022/10/09 11:49:30;;;;;;;8.70;3.00;;;;;;;;;;5015055;28;20030;-79
2022/10/09 11:52:05;;;;;;;12.48;3.17;;;;;;;;;;5015608;28;20433;-80
2022/10/09 11:54:32;;;;;;;17.33;5.00;;;;;;;;;;5015032;28;20319;-79
2022/10/09 11:56:59;;;;;;;7.28;2.95;;;;;;;;;;5015351;28;20124;-79
2022/10/09 11:59:29;;;;;;;7.30;2.60;;;;;;;;;;5015077;28;20460;-79
2022/10/09 12:01:56;;;;;;;10.50;3.13;;;;;;;;;;5015108;28;20042;-79
2022/10/09 12:04:25;;;;;;;11.82;3.30;;;;;;;;;;5007377;28;20045;-79
2022/10/09 12:06:51;;;;;;;9.40;2.78;;;;;;;;;;4995395;28;20443;-79
2022/10/09 12:09:31;;;;;;;5.97;2.55;;;;;;;;;;4995379;28;20137;-79
2022/10/09 12:12:05;;;;;;;8.60;2.58;;;;;;;;;;4995388;28;20018;-79
2022/10/09 12:14:31;;;;;;;12.20;2.92;;;;;;;;;;4995202;28;20468;-79
2022/10/09 12:16:58;;;;;;;6.72;2.10;;;;;;;;;;4995145;28;20038;-79
2022/10/09 12:19:27;;;;;;;9.00;2.58;;;;;;;;;;4993424;28;20224;-79
2022/10/09 12:21:56;;;;;;;6.70;2.03;;;;;;;;;;4994976;28;20026;-79
2022/10/09 12:24:24;;;;;;;9.10;2.10;;;;;;;;;;4994932;28;20030;-79
2022/10/09 12:26:52;;;;;;;7.35;2.08;;;;;;;;;;4995113;28;20077;-79
2022/10/09 12:29:24;;;;;;;7.15;2.50;;;;;;;;;;4994380;28;20059;-79
2022/10/09 12:31:50;;;;;;;10.57;2.80;;;;;;;;;;4994824;28;20472;-78
2022/10/09 12:34:35;;;;;;;9.07;2.58;;;;;;;;;;5016492;28;20022;-79
2022/10/09 12:37:28;;;;;;;10.85;3.47;;;;;;;;;;5011138;28;20024;-80
2022/10/09 12:39:54;;;;;;;10.07;2.45;;;;;;;;;;5003548;28;20080;-79
2022/10/09 12:42:22;;;;;;;5.45;2.13;;;;;;;;;;5005146;28;20040;-79
2022/10/09 12:44:49;;;;;;;5.50;2.13;;;;;;;;;;5012024;28;20076;-80
2022/10/09 12:47:26;;;;;;;7.03;2.22;;;;;;;;;;5006928;28;20042;-79
2022/10/09 12:50:05;;;;;;;7.43;2.42;;;;;;;;;;5003830;28;20022;-78
2022/10/09 12:52:31;;;;;;;9.98;2.78;;;;;;;;;;4994466;28;20504;-79
2022/10/09 12:54:58;;;;;;;6.80;2.10;;;;;;;;;;5008581;28;20034;-79
2022/10/09 12:57:25;;;;;;;6.35;1.92;;;;;;;;;;5008623;28;20030;-79
2022/10/09 12:59:51;;;;;;;6.30;2.03;;;;;;;;;;4994204;28;20342;-79
2022/10/09 13:02:18;;;;;;;6.65;1.70;;;;;;;;;;4994406;28;20130;-79
2022/10/09 13:04:58;;;;;;;7.05;1.85;;;;;;;;;;5018496;28;20069;-79
2022/10/09 13:07:26;;;;;;;9.52;2.08;;;;;;;;;;5013624;28;20030;-79
2022/10/09 13:09:57;;;;;;;6.63;2.15;;;;;;;;;;5013701;28;20099;-79
2022/10/09 13:12:27;;;;;;;6.38;2.00;;;;;;;;;;5013510;28;20021;-79
2022/10/09 13:15:07;;;;;;;6.22;2.13;;;;;;;;;;5013629;28;20029;-79
2022/10/09 13:17:38;;;;;;;7.82;2.45;;;;;;;;;;5013935;28;20056;-79
2022/10/09 13:20:16;;;;;;;6.10;1.42;;;;;;;;;;5013487;28;20021;-79
2022/10/09 13:22:52;;;;;;;6.60;1.70;;;;;;;;;;5013432;28;20036;-79
2022/10/09 13:25:18;;;;;;;7.25;2.47;;;;;;;;;;5013428;28;20025;-79
2022/10/09 13:27:44;;;;;;;5.43;1.40;;;;;;;;;;5013347;28;20034;-79
2022/10/09 13:30:11;;;;;;;4.88;1.30;;;;;;;;;;5012922;28;20117;-79
2022/10/09 13:32:37;;;;;;;4.50;1.15;;;;;;;;;;5008646;28;20345;-80
2022/10/09 13:35:03;;;;;;;5.40;1.15;;;;;;;;;;5025195;28;20058;-80
2022/10/09 13:37:29;;;;;;;6.22;1.65;;;;;;;;;;4992199;28;20065;-80
2022/10/09 13:39:56;;;;;;;4.85;1.35;;;;;;;;;;4993341;28;20130;-80
2022/10/09 13:42:24;;;;;;;4.75;1.50;;;;;;;;;;5010907;28;20763;-80
2022/10/09 13:44:50;;;;;;;4.95;1.70;;;;;;;;;;5009555;28;20029;-80
2022/10/09 13:47:16;;;;;;;3.47;1.23;;;;;;;;;;5003966;28;20037;-80
2022/10/09 13:49:42;;;;;;;6.85;1.25;;;;;;;;;;5002708;28;20022;-80
2022/10/09 13:52:09;;;;;;;4.53;1.50;;;;;;;;;;5004152;28;20441;-79
2022/10/09 13:54:35;;;;;;;6.47;1.33;;;;;;;;;;5005030;28;20113;-80
2022/10/09 13:57:01;;;;;;;8.68;1.88;;;;;;;;;;5007249;28;20041;-80
2022/10/09 13:59:30;;;;;;;12.55;2.35;;;;;;;;;;5004404;28;20061;-80
2022/10/09 14:01:56;;;;;;;3.63;1.45;;;;;;;;;;5005185;28;20037;-79
2022/10/09 14:04:22;;;;;;;7.82;1.70;;;;;;;;;;5008265;28;20053;-80
2022/10/09 14:06:48;;;;;;;3.83;1.20;;;;;;;;;;5008217;28;20157;-80
2022/10/09 14:09:14;;;;;;;5.47;1.27;;;;;;;;;;5006357;28;20344;-80
2022/10/09 14:11:41;;;;;;;5.38;1.63;;;;;;;;;;4999198;28;20101;-80
2022/10/09 14:14:07;;;;;;;6.50;1.60;;;;;;;;;;5006778;28;20018;-80
2022/10/09 14:16:33;;;;;;;4.90;1.42;;;;;;;;;;5004704;28;20469;-80
2022/10/09 14:19:00;;;;;;;7.40;1.20;;;;;;;;;;5000656;28;20053;-80
2022/10/09 14:21:26;;;;;;;4.50;1.50;;;;;;;;;;5022886;28;20369;-80
2022/10/09 14:23:53;;;;;;;5.65;1.60;;;;;;;;;;5004814;28;20084;-80
2022/10/09 14:26:19;;;;;;;5.93;1.48;;;;;;;;;;5012496;28;20026;-80
2022/10/09 14:28:45;;;;;;;4.35;1.50;;;;;;;;;;5007120;28;20057;-80
2022/10/09 14:31:12;;;;;;;9.05;2.00;;;;;;;;;;5001616;28;20050;-80
2022/10/09 14:33:38;;;;;;;7.63;1.52;;;;;;;;;;5003777;28;20031;-80
2022/10/09 14:36:05;;;;;;;4.32;1.45;;;;;;;;;;5020167;28;20440;-81
2022/10/09 14:38:31;;;;;;;4.53;1.73;;;;;;;;;;4996602;28;20503;-81
2022/10/09 14:40:57;;;;;;;7.25;1.40;;;;;;;;;;5000651;28;20315;-80